createdAt,value
2018-11-06T00:00:50.101Z,56.7
2018-11-06T00:02:50.259Z,58.8
2018-11-06T00:04:49.774Z,58.8
2018-11-06T00:06:49.707Z,53.3
2018-11-06T00:08:49.993Z,64.9
2018-11-06T00:10:50.113Z,54.1
2018-11-06T00:12:50.237Z,55.8
2018-11-06T00:14:49.482Z,55.8
2018-11-06T00:16:49.759Z,59.4
2018-11-06T00:18:49.912Z,51.9
2018-11-06T00:20:50.061Z,51.9
2018-11-06T00:22:50.223Z,64.4
2018-11-06T00:24:50.380Z,58.9
2018-11-06T00:26:49.800Z,57.6
2018-11-06T00:28:49.979Z,57.6
2018-11-06T00:30:50.176Z,66.1
2018-11-06T00:32:50.284Z,57.4
2018-11-06T00:34:49.906Z,60.8
2018-11-06T00:36:50.237Z,51.8
2018-11-06T00:38:50.434Z,51.8
2018-11-06T00:40:49.680Z,58.9
2018-11-06T00:42:49.834Z,58.9
2018-11-06T00:44:50.032Z,57.6
2018-11-06T00:46:50.348Z,57.6
2018-11-06T00:48:49.541Z,59.7
2018-11-06T00:50:49.823Z,59.7
2018-11-06T00:52:50.017Z,58.0
2018-11-06T00:54:50.181Z,60.4
2018-11-06T00:56:49.611Z,60.4
2018-11-06T00:58:49.737Z,57.5
2018-11-06T01:00:49.896Z,61.8
2018-11-06T01:02:49.999Z,61.8
2018-11-06T01:04:49.558Z,61.1
2018-11-06T01:06:49.988Z,56.9
2018-11-06T01:08:50.221Z,58.5
2018-11-06T01:10:50.352Z,58.5
2018-11-06T01:12:49.564Z,58.5
2018-11-06T01:14:49.720Z,51.0
2018-11-06T01:16:49.976Z,55.9
2018-11-06T01:18:50.283Z,48.6
2018-11-06T01:20:49.472Z,48.6
2018-11-06T01:22:49.666Z,54.1
2018-11-06T01:24:49.847Z,57.9
2018-11-06T01:26:50.218Z,57.0
2018-11-06T01:28:49.465Z,57.0
2018-11-06T01:30:49.797Z,52.4
2018-11-06T01:32:50.034Z,53.2
2018-11-06T01:34:49.584Z,53.6
2018-11-06T01:36:49.990Z,57.5
2018-11-06T01:38:50.266Z,57.3
2018-11-06T01:40:50.419Z,57.3
2018-11-06T01:42:49.588Z,55.2
2018-11-06T01:44:49.792Z,58.1
2018-11-06T01:46:50.078Z,58.1
2018-11-06T01:48:50.234Z,58.9
2018-11-06T01:50:49.484Z,58.9
2018-11-06T01:52:49.672Z,52.8
2018-11-06T01:54:49.831Z,56.7
2018-11-06T01:56:50.208Z,56.3
2018-11-06T01:58:50.398Z,56.3
2018-11-06T02:00:49.602Z,52.7
2018-11-06T02:02:49.710Z,60.9
2018-11-06T02:04:50.203Z,51.2
2018-11-06T02:06:49.604Z,53.9
2018-11-06T02:08:49.808Z,53.9
2018-11-06T02:10:50.030Z,55.9
2018-11-06T02:12:50.207Z,55.6
2018-11-06T02:14:49.611Z,52.2
2018-11-06T02:16:49.955Z,49.7
2018-11-06T02:18:50.233Z,49.7
2018-11-06T02:20:49.466Z,55.9
2018-11-06T02:22:49.855Z,57.3
2018-11-06T02:24:50.112Z,50.1
2018-11-06T02:26:49.684Z,50.1
2018-11-06T02:28:49.911Z,58.5
2018-11-06T02:30:50.170Z,50.8
2018-11-06T02:32:49.438Z,52.4
2018-11-06T02:34:49.957Z,51.4
2018-11-06T02:36:50.381Z,51.4
2018-11-06T02:38:49.808Z,52.7
2018-11-06T02:40:50.036Z,50.2
2018-11-06T02:42:50.170Z,53.4
2018-11-06T02:44:50.317Z,53.4
2018-11-06T02:46:49.759Z,50.2
2018-11-06T02:48:49.867Z,51.9
2018-11-06T02:50:50.052Z,50.8
2018-11-06T02:52:50.344Z,50.8
2018-11-06T02:54:49.462Z,52.8
2018-11-06T02:56:49.848Z,52.8
2018-11-06T02:58:49.985Z,48.7
2018-11-06T03:00:50.191Z,53.1
2018-11-06T03:02:50.335Z,53.1
2018-11-06T03:04:49.940Z,51.7
2018-11-06T03:06:49.447Z,51.7
2018-11-06T03:08:49.968Z,52.0
2018-11-06T03:10:50.141Z,54.8
2018-11-06T03:12:50.290Z,54.8
2018-11-06T03:14:49.540Z,55.8
2018-11-06T03:16:49.823Z,55.8
2018-11-06T03:18:49.574Z,54.9
2018-11-06T03:20:49.807Z,54.9
2018-11-06T03:22:50.020Z,48.3
2018-11-06T03:24:50.267Z,48.3
2018-11-06T03:26:49.713Z,48.8
2018-11-06T03:28:50.243Z,58.4
2018-11-06T03:30:50.387Z,56.4
2018-11-06T03:32:49.645Z,52.6
2018-11-06T03:34:50.149Z,52.6
2018-11-06T03:36:49.561Z,59.9
2018-11-06T03:38:49.800Z,53.1
2018-11-06T03:40:50.001Z,53.1
2018-11-06T03:42:50.118Z,54.7
2018-11-06T03:44:50.247Z,48.7
2018-11-06T03:46:49.716Z,48.5
2018-11-06T03:48:49.848Z,55.8
2018-11-06T03:50:50.003Z,56.0
2018-11-06T03:52:50.176Z,56.0
2018-11-06T03:54:50.369Z,56.1
2018-11-06T03:56:49.706Z,52.7
2018-11-06T03:58:49.823Z,52.7
2018-11-06T04:00:50.078Z,53.2
2018-11-06T04:02:50.183Z,55.9
2018-11-06T04:04:49.921Z,53.9
2018-11-06T04:06:50.269Z,51.2
2018-11-06T04:08:49.509Z,55.0
2018-11-06T04:10:49.664Z,55.0
2018-11-06T04:12:49.817Z,51.1
2018-11-06T04:14:50.044Z,48.5
2018-11-06T04:16:49.547Z,52.4
2018-11-06T04:18:49.666Z,48.3
2018-11-06T04:20:49.937Z,51.8
2018-11-06T04:22:50.138Z,51.8
2018-11-06T04:24:50.237Z,45.7
2018-11-06T04:26:49.696Z,48.6
2018-11-06T04:28:49.848Z,49.6
2018-11-06T04:30:49.957Z,53.2
2018-11-06T04:32:50.148Z,53.2
2018-11-06T04:34:49.565Z,52.6
2018-11-06T04:36:49.928Z,51.3
2018-11-06T04:38:50.025Z,51.3
2018-11-06T04:40:50.125Z,52.2
2018-11-06T04:42:50.293Z,52.2
2018-11-06T04:44:49.526Z,53.2
2018-11-06T04:46:49.888Z,56.9
2018-11-06T04:48:50.025Z,54.1
2018-11-06T04:50:50.251Z,58.2
2018-11-06T04:52:49.489Z,58.2
2018-11-06T04:54:49.657Z,53.0
2018-11-06T04:56:50.046Z,50.3
2018-11-06T04:58:50.133Z,50.5
2018-11-06T05:00:50.270Z,50.5
2018-11-06T05:02:50.414Z,50.0
2018-11-06T05:04:50.127Z,51.9
2018-11-06T05:06:49.535Z,55.3
2018-11-06T05:08:50.359Z,55.3
2018-11-06T05:10:49.531Z,59.6
2018-11-06T05:12:49.697Z,50.8
2018-11-06T05:14:49.868Z,55.9
2018-11-06T05:16:50.260Z,54.2
2018-11-06T05:18:50.409Z,54.2
2018-11-06T05:20:49.671Z,52.2
2018-11-06T05:22:49.854Z,52.0
2018-11-06T05:24:50.084Z,52.0
2018-11-06T05:26:50.216Z,53.1
2018-11-06T05:28:49.487Z,48.8
2018-11-06T05:30:49.635Z,48.8
2018-11-06T05:32:49.839Z,48.6
2018-11-06T05:34:50.183Z,57.2
2018-11-06T05:36:50.392Z,57.2
2018-11-06T05:38:49.653Z,51.2
2018-11-06T05:40:50.088Z,51.2
2018-11-06T05:42:50.413Z,51.6
2018-11-06T05:44:49.572Z,54.4
2018-11-06T05:46:49.952Z,54.4
2018-11-06T05:48:50.168Z,50.8
2018-11-06T05:50:50.351Z,50.8
2018-11-06T05:52:49.514Z,49.2
2018-11-06T05:54:49.691Z,55.0
2018-11-06T05:56:50.086Z,54.0
2018-11-06T05:58:50.210Z,55.0
2018-11-06T06:00:49.494Z,55.0
2018-11-06T06:02:49.717Z,55.5
2018-11-06T06:04:50.072Z,54.6
2018-11-06T06:06:50.418Z,51.0
2018-11-06T06:08:49.604Z,51.0
2018-11-06T06:10:49.692Z,51.2
2018-11-06T06:12:49.930Z,53.6
2018-11-06T06:14:50.183Z,53.6
2018-11-06T06:16:49.710Z,51.3
2018-11-06T06:18:50.048Z,51.3
2018-11-06T06:20:50.311Z,58.0
2018-11-06T06:22:49.440Z,63.7
2018-11-06T06:24:49.632Z,61.6
2018-11-06T06:26:50.038Z,69.1
2018-11-06T06:28:50.152Z,69.1
2018-11-06T06:30:50.366Z,55.8
2018-11-06T06:32:49.568Z,58.9
2018-11-06T06:34:49.869Z,61.5
2018-11-06T06:36:49.652Z,60.0
2018-11-06T06:38:49.707Z,60.0
2018-11-06T06:40:49.589Z,52.7
2018-11-06T06:42:50.040Z,57.4
2018-11-06T06:44:50.059Z,51.5
2018-11-06T06:46:50.220Z,51.5
2018-11-06T06:48:50.180Z,49.7
2018-11-06T06:50:50.209Z,48.6
2018-11-06T06:52:50.127Z,49.2
2018-11-06T06:54:50.148Z,46.5
2018-11-06T06:56:49.576Z,46.5
2018-11-06T06:58:49.582Z,42.9
2018-11-06T07:00:49.699Z,42.2
2018-11-06T07:02:49.734Z,42.2
2018-11-06T07:04:50.020Z,40.3
2018-11-06T07:06:50.143Z,41.5
2018-11-06T07:08:50.100Z,42.4
2018-11-06T07:10:50.131Z,66.2
2018-11-06T07:12:50.208Z,66.2
2018-11-06T07:14:49.697Z,60.3
2018-11-06T07:16:49.869Z,86.0
2018-11-06T07:18:49.841Z,64.0
2018-11-06T07:20:49.851Z,53.7
2018-11-06T07:22:49.862Z,55.9
2018-11-06T07:24:49.930Z,55.9
2018-11-06T07:26:50.051Z,64.5
2018-11-06T07:28:50.141Z,50.0
2018-11-06T07:30:49.704Z,53.8
2018-11-06T07:32:49.692Z,53.6
2018-11-06T07:34:50.134Z,53.6
2018-11-06T07:36:50.313Z,43.4
2018-11-06T07:38:50.309Z,43.4
2018-11-06T07:40:50.393Z,48.5
2018-11-06T07:42:49.745Z,48.5
2018-11-06T07:44:49.694Z,55.3
2018-11-06T07:46:49.800Z,52.0
2018-11-06T07:48:49.763Z,59.9
2018-11-06T07:50:49.690Z,48.8
2018-11-06T07:52:49.732Z,48.8
2018-11-06T07:54:49.690Z,64.2
2018-11-06T07:56:49.818Z,60.3
2018-11-06T07:58:49.800Z,68.8
2018-11-06T08:00:49.753Z,49.6
2018-11-06T08:02:49.776Z,49.6
2018-11-06T08:04:50.028Z,51.1
2018-11-06T08:06:50.196Z,54.5
2018-11-06T08:08:50.122Z,52.2
2018-11-06T08:10:50.144Z,52.2
2018-11-06T08:12:50.302Z,37.0
2018-11-06T08:14:50.449Z,37.0
2018-11-06T08:16:49.993Z,32.5
2018-11-06T08:18:49.947Z,31.0
2018-11-06T08:20:49.919Z,43.5
2018-11-06T08:22:49.864Z,31.6
2018-11-06T08:24:49.882Z,31.6
2018-11-06T08:26:50.042Z,29.7
2018-11-06T08:28:50.021Z,34.4
2018-11-06T08:30:50.231Z,34.4
2018-11-06T08:32:50.448Z,33.8
2018-11-06T08:34:49.472Z,26.6
2018-11-06T08:36:49.746Z,21.6
2018-11-06T08:38:49.920Z,23.0
2018-11-06T08:40:49.929Z,19.2
2018-11-06T08:42:49.924Z,19.2
2018-11-06T08:44:49.865Z,19.6
2018-11-06T08:46:50.039Z,19.6
2018-11-06T08:48:49.981Z,18.3
2018-11-06T08:50:49.946Z,18.3
2018-11-06T08:52:49.915Z,16.9
2018-11-06T08:54:49.884Z,17.5
2018-11-06T08:56:50.063Z,16.0
2018-11-06T08:58:50.092Z,13.6
2018-11-06T09:00:50.081Z,13.6
2018-11-06T09:02:50.023Z,15.9
2018-11-06T09:04:50.336Z,15.9
2018-11-06T09:06:49.597Z,13.8
2018-11-06T09:08:49.715Z,13.8
2018-11-06T09:10:50.330Z,9.9
2018-11-06T09:12:50.326Z,10.2
2018-11-06T09:14:50.353Z,9.9
2018-11-06T09:16:49.509Z,9.9
2018-11-06T09:18:50.015Z,11.1
2018-11-06T09:20:49.993Z,12.6
2018-11-06T09:22:50.062Z,11.5
2018-11-06T09:24:50.044Z,9.1
2018-11-06T09:26:50.066Z,8.9
2018-11-06T09:28:50.093Z,8.9
2018-11-06T09:30:50.080Z,8.9
2018-11-06T09:32:49.465Z,8.7
2018-11-06T09:34:49.920Z,8.3
2018-11-06T09:36:50.093Z,8.4
2018-11-06T09:38:49.995Z,9.1
2018-11-06T09:40:49.933Z,9.1
2018-11-06T09:42:49.917Z,8.1
2018-11-06T09:44:50.026Z,8.6
2018-11-06T09:46:49.464Z,7.5
2018-11-06T09:48:49.597Z,7.5
2018-11-06T09:50:49.762Z,7.6
2018-11-06T09:52:49.712Z,8.7
2018-11-06T09:54:49.698Z,7.4
2018-11-06T09:56:49.800Z,7.4
2018-11-06T09:58:49.685Z,10.4
2018-11-06T10:00:49.776Z,10.4
2018-11-06T10:02:49.757Z,7.2
2018-11-06T10:04:50.064Z,7.2
2018-11-06T10:06:50.424Z,7.2
2018-11-06T10:08:50.069Z,9.8
2018-11-06T10:10:49.467Z,6.7
2018-11-06T10:12:49.443Z,6.9
2018-11-06T10:14:50.416Z,6.7
2018-11-06T10:16:49.691Z,6.7
2018-11-06T10:18:49.704Z,6.4
2018-11-06T10:20:49.718Z,14.5
2018-11-06T10:22:49.707Z,6.3
2018-11-06T10:24:49.627Z,6.3
2018-11-06T10:26:50.065Z,6.3
2018-11-06T10:28:50.169Z,6.9
2018-11-06T10:30:50.213Z,6.2
2018-11-06T10:32:49.708Z,13.0
2018-11-06T10:34:50.083Z,13.0
2018-11-06T10:36:50.199Z,6.7
2018-11-06T10:38:50.185Z,6.7
2018-11-06T10:40:50.238Z,6.5
2018-11-06T10:42:50.254Z,6.3
2018-11-06T10:44:50.287Z,6.3
2018-11-06T10:46:49.489Z,9.5
2018-11-06T10:48:49.528Z,6.0
2018-11-06T10:50:49.506Z,8.0
2018-11-06T10:52:49.531Z,8.0
2018-11-06T10:54:49.600Z,6.2
2018-11-06T10:56:49.767Z,6.9
2018-11-06T10:58:49.769Z,6.0
2018-11-06T11:00:49.721Z,6.9
2018-11-06T11:02:49.749Z,6.9
2018-11-06T11:04:50.225Z,6.9
2018-11-06T11:06:49.490Z,6.9
2018-11-06T11:08:49.712Z,7.1
2018-11-06T11:10:49.924Z,5.5
2018-11-06T11:12:50.209Z,5.5
2018-11-06T11:14:50.308Z,5.5
2018-11-06T11:16:49.801Z,5.5
2018-11-06T11:18:49.962Z,5.1
2018-11-06T11:20:50.138Z,7.4
2018-11-06T11:22:50.314Z,7.4
2018-11-06T11:24:49.422Z,7.9
2018-11-06T11:26:49.866Z,7.9
2018-11-06T11:28:50.053Z,5.5
2018-11-06T11:30:50.206Z,4.9
2018-11-06T11:32:50.288Z,5.7
2018-11-06T11:34:49.708Z,5.7
2018-11-06T11:36:50.069Z,5.2
2018-11-06T11:38:50.189Z,12.2
2018-11-06T11:40:49.458Z,5.1
2018-11-06T11:42:49.621Z,5.1
2018-11-06T11:44:49.797Z,5.1
2018-11-06T11:46:50.148Z,8.1
2018-11-06T11:48:50.259Z,5.5
2018-11-06T11:50:49.468Z,5.2
2018-11-06T11:52:49.670Z,5.2
2018-11-06T11:54:49.906Z,7.1
2018-11-06T11:56:50.339Z,10.9
2018-11-06T11:58:49.597Z,7.4
2018-11-06T12:00:49.781Z,5.2
2018-11-06T12:02:49.988Z,5.2
2018-11-06T12:04:49.445Z,5.2
2018-11-06T12:06:49.879Z,5.2
2018-11-06T12:08:49.993Z,6.3
2018-11-06T12:10:50.126Z,5.0
2018-11-06T12:12:50.312Z,5.0
2018-11-06T12:14:49.455Z,5.3
2018-11-06T12:16:49.807Z,5.3
2018-11-06T12:18:49.969Z,5.2
2018-11-06T12:20:50.157Z,5.2
2018-11-06T12:22:50.256Z,7.1
2018-11-06T12:24:49.625Z,9.3
2018-11-06T12:26:50.108Z,9.3
2018-11-06T12:28:50.235Z,5.0
2018-11-06T12:30:50.417Z,5.0
2018-11-06T12:32:49.687Z,11.6
2018-11-06T12:34:50.194Z,6.7
2018-11-06T12:36:49.488Z,5.6
2018-11-06T12:38:50.084Z,4.9
2018-11-06T12:40:50.190Z,4.9
2018-11-06T12:42:50.458Z,5.1
2018-11-06T12:44:49.920Z,36.6
2018-11-06T12:46:50.185Z,5.7
2018-11-06T12:48:50.335Z,5.7
2018-11-06T12:50:49.430Z,8.9
2018-11-06T12:52:49.557Z,8.9
2018-11-06T12:54:49.722Z,5.3
2018-11-06T12:56:50.034Z,5.3
2018-11-06T12:58:50.179Z,10.3
2018-11-06T13:00:50.298Z,5.5
2018-11-06T13:02:49.508Z,5.5
2018-11-06T13:04:49.905Z,4.8
2018-11-06T13:06:50.290Z,5.2
2018-11-06T13:08:49.474Z,5.2
2018-11-06T13:10:49.551Z,5.1
2018-11-06T13:12:49.714Z,14.8
2018-11-06T13:14:49.937Z,4.6
2018-11-06T13:16:50.333Z,4.9
2018-11-06T13:18:49.921Z,4.9
2018-11-06T13:20:50.379Z,12.0
2018-11-06T13:22:49.798Z,4.4
2018-11-06T13:24:49.998Z,4.4
2018-11-06T13:26:49.498Z,8.9
2018-11-06T13:28:49.695Z,5.6
2018-11-06T13:30:49.884Z,5.6
2018-11-06T13:32:50.264Z,24.6
2018-11-06T13:34:49.453Z,5.0
2018-11-06T13:36:49.881Z,10.2
2018-11-06T13:38:49.619Z,7.9
2018-11-06T13:40:50.075Z,7.9
2018-11-06T13:42:50.463Z,5.3
2018-11-06T13:44:50.101Z,5.6
2018-11-06T13:46:50.414Z,5.6
2018-11-06T13:48:49.754Z,5.6
2018-11-06T13:50:49.991Z,21.6
2018-11-06T13:52:50.270Z,6.7
2018-11-06T13:54:49.451Z,6.4
2018-11-06T13:56:49.890Z,6.4
2018-11-06T13:58:50.048Z,6.7
2018-11-06T14:00:50.206Z,13.3
2018-11-06T14:02:50.359Z,12.0
2018-11-06T14:04:49.940Z,12.0
2018-11-06T14:06:50.256Z,42.6
2018-11-06T14:08:49.459Z,42.6
2018-11-06T14:10:49.659Z,37.5
2018-11-06T14:12:49.976Z,36.1
2018-11-06T14:14:50.279Z,36.1
2018-11-06T14:16:49.707Z,40.6
2018-11-06T14:18:49.938Z,40.6
2018-11-06T14:20:50.125Z,34.2
2018-11-06T14:22:50.280Z,10.3
2018-11-06T14:24:49.522Z,15.9
2018-11-06T14:26:49.879Z,8.1
2018-11-06T14:28:49.441Z,8.1
2018-11-06T14:30:49.770Z,7.1
2018-11-06T14:32:50.026Z,7.2
2018-11-06T14:34:50.420Z,12.1
2018-11-06T14:36:49.861Z,12.1
2018-11-06T14:38:50.020Z,11.8
2018-11-06T14:40:50.132Z,13.0
2018-11-06T14:42:50.312Z,15.3
2018-11-06T14:44:50.243Z,8.2
2018-11-06T14:46:49.698Z,8.2
2018-11-06T14:48:50.055Z,14.0
2018-11-06T14:50:50.193Z,7.8
2018-11-06T14:52:50.314Z,6.9
2018-11-06T14:54:49.445Z,6.9
2018-11-06T14:56:50.011Z,7.6
2018-11-06T14:58:49.594Z,7.1
2018-11-06T15:00:50.304Z,8.0
2018-11-06T15:02:49.973Z,7.7
2018-11-06T15:04:49.558Z,7.7
2018-11-06T15:06:49.896Z,7.5
2018-11-06T15:08:50.028Z,11.6
2018-11-06T15:10:50.252Z,16.4
2018-11-06T15:12:50.467Z,16.4
2018-11-06T15:14:49.643Z,11.4
2018-11-06T15:16:49.973Z,11.4
2018-11-06T15:18:50.136Z,8.9
2018-11-06T15:20:50.291Z,13.4
2018-11-06T15:22:50.138Z,13.4
2018-11-06T15:24:50.294Z,12.3
2018-11-06T15:26:49.621Z,12.3
2018-11-06T15:28:49.739Z,12.3
2018-11-06T15:30:49.891Z,10.4
2018-11-06T15:32:50.034Z,10.4
2018-11-06T15:34:49.505Z,10.8
2018-11-06T15:36:49.889Z,10.8
2018-11-06T15:38:50.055Z,10.5
2018-11-06T15:40:50.249Z,11.7
2018-11-06T15:42:50.071Z,11.7
2018-11-06T15:44:50.277Z,16.1
2018-11-06T15:46:49.626Z,17.2
2018-11-06T15:48:50.034Z,18.8
2018-11-06T15:50:49.882Z,18.8
2018-11-06T15:52:50.116Z,19.0
2018-11-06T15:54:50.322Z,19.8
2018-11-06T15:56:49.539Z,20.6
2018-11-06T15:58:49.764Z,20.6
2018-11-06T16:00:49.968Z,18.5
2018-11-06T16:02:50.268Z,15.4
2018-11-06T16:04:49.984Z,23.6
2018-11-06T16:06:50.353Z,30.6
2018-11-06T16:08:49.566Z,16.2
2018-11-06T16:10:49.750Z,16.2
2018-11-06T16:12:50.091Z,26.2
2018-11-06T16:14:50.334Z,26.2
2018-11-06T16:16:49.672Z,28.1
2018-11-06T16:18:49.792Z,29.1
2018-11-06T16:20:50.008Z,29.1
2018-11-06T16:22:49.743Z,22.8
2018-11-06T16:24:49.872Z,22.8
2018-11-06T16:26:50.237Z,18.3
2018-11-06T16:28:50.367Z,49.6
2018-11-06T16:30:49.520Z,34.1
2018-11-06T16:32:49.697Z,34.1
2018-11-06T16:34:49.454Z,28.2
2018-11-06T16:36:49.879Z,26.8
2018-11-06T16:38:50.049Z,28.0
2018-11-06T16:40:50.193Z,28.0
2018-11-06T16:42:50.492Z,24.6
2018-11-06T16:44:49.590Z,24.3
2018-11-06T16:46:50.076Z,19.6
2018-11-06T16:48:50.252Z,19.6
2018-11-06T16:50:50.383Z,18.8
2018-11-06T16:52:49.716Z,18.8
2018-11-06T16:54:49.823Z,21.7
2018-11-06T16:56:50.326Z,18.9
2018-11-06T16:58:49.674Z,21.3
2018-11-06T17:00:49.905Z,21.3
2018-11-06T17:02:49.432Z,19.9
2018-11-06T17:04:50.095Z,21.9
2018-11-06T17:06:50.404Z,20.3
2018-11-06T17:08:49.467Z,20.4
2018-11-06T17:10:49.665Z,20.4
2018-11-06T17:12:49.800Z,20.6
2018-11-06T17:14:49.962Z,19.8
2018-11-06T17:16:49.446Z,22.0
2018-11-06T17:18:49.713Z,22.0
2018-11-06T17:20:49.900Z,24.0
2018-11-06T17:22:50.064Z,21.6
2018-11-06T17:24:50.270Z,22.6
2018-11-06T17:26:49.747Z,21.8
2018-11-06T17:28:49.884Z,21.8
2018-11-06T17:30:49.906Z,21.5
2018-11-06T17:32:49.885Z,21.5
2018-11-06T17:34:50.218Z,23.4
2018-11-06T17:36:49.466Z,23.4
2018-11-06T17:38:49.659Z,24.1
2018-11-06T17:40:49.868Z,22.3
2018-11-06T17:42:50.054Z,21.7
2018-11-06T17:44:50.265Z,23.7
2018-11-06T17:46:49.647Z,23.7
2018-11-06T17:48:49.712Z,23.6
2018-11-06T17:50:49.844Z,23.6
2018-11-06T17:52:50.042Z,23.6
2018-11-06T17:54:50.398Z,25.7
2018-11-06T17:56:49.854Z,25.7
2018-11-06T17:58:50.076Z,23.6
2018-11-06T18:00:50.240Z,23.6
2018-11-06T18:02:50.343Z,23.6
2018-11-06T18:04:50.081Z,26.0
2018-11-06T18:06:49.584Z,27.0
2018-11-06T18:08:49.803Z,27.0
2018-11-06T18:10:49.963Z,25.1
2018-11-06T18:12:50.221Z,24.8
2018-11-06T18:14:49.500Z,24.1
2018-11-06T18:16:49.903Z,25.2
2018-11-06T18:18:50.070Z,25.2
2018-11-06T18:20:50.237Z,25.3
2018-11-06T18:22:49.480Z,25.3
2018-11-06T18:24:49.683Z,25.3
2018-11-06T18:26:50.146Z,32.0
2018-11-06T18:28:50.399Z,32.0
2018-11-06T18:30:49.585Z,31.1
2018-11-06T18:32:49.709Z,31.1
2018-11-06T18:34:50.144Z,27.1
2018-11-06T18:36:49.586Z,28.3
2018-11-06T18:38:49.780Z,28.3
2018-11-06T18:40:49.995Z,31.0
2018-11-06T18:42:50.205Z,29.1
2018-11-06T18:44:50.351Z,29.1
2018-11-06T18:46:49.762Z,29.4
2018-11-06T18:48:49.932Z,29.4
2018-11-06T18:50:50.161Z,29.4
2018-11-06T18:52:50.254Z,32.2
2018-11-06T18:54:49.515Z,32.2
2018-11-06T18:56:49.963Z,29.9
2018-11-06T18:58:50.157Z,29.9
2018-11-06T19:00:50.421Z,34.2
2018-11-06T19:02:49.643Z,33.3
2018-11-06T19:04:50.220Z,35.0
2018-11-06T19:06:49.620Z,35.0
2018-11-06T19:08:49.763Z,34.0
2018-11-06T19:10:50.050Z,31.2
2018-11-06T19:12:50.296Z,31.2
2018-11-06T19:14:49.510Z,34.3
2018-11-06T19:16:49.954Z,34.3
2018-11-06T19:18:49.697Z,35.8
2018-11-06T19:20:49.875Z,34.1
2018-11-06T19:22:50.114Z,33.7
2018-11-06T19:24:50.303Z,33.7
2018-11-06T19:26:49.655Z,35.4
2018-11-06T19:28:49.858Z,35.4
2018-11-06T19:30:49.942Z,35.7
2018-11-06T19:32:50.184Z,37.6
2018-11-06T19:34:49.685Z,37.6
2018-11-06T19:36:50.138Z,35.6
2018-11-06T19:38:50.391Z,35.9
2018-11-06T19:40:49.529Z,36.0
2018-11-06T19:42:49.665Z,36.0
2018-11-06T19:44:49.836Z,35.3
2018-11-06T19:46:50.198Z,35.1
2018-11-06T19:48:50.545Z,31.1
2018-11-06T19:50:50.094Z,31.1
2018-11-06T19:52:50.457Z,33.0
2018-11-06T19:54:49.433Z,31.8
2018-11-06T19:56:49.974Z,33.0
2018-11-06T19:58:49.917Z,34.3
2018-11-06T20:00:50.056Z,33.2
2018-11-06T20:02:49.514Z,33.2
2018-11-06T20:04:49.512Z,34.7
2018-11-06T20:06:49.801Z,35.3
2018-11-06T20:08:50.012Z,39.2
2018-11-06T20:10:50.204Z,39.2
2018-11-06T20:12:49.450Z,36.9
2018-11-06T20:14:49.667Z,37.1
2018-11-06T20:16:49.995Z,36.8
2018-11-06T20:18:50.106Z,36.8
2018-11-06T20:20:50.251Z,38.6
2018-11-06T20:22:49.426Z,35.5
2018-11-06T20:24:49.584Z,36.1
2018-11-06T20:26:49.914Z,36.8
2018-11-06T20:28:50.001Z,37.5
2018-11-06T20:30:50.197Z,37.5
2018-11-06T20:32:50.318Z,44.1
2018-11-06T20:34:49.739Z,44.1
2018-11-06T20:36:50.066Z,40.2
2018-11-06T20:38:50.118Z,40.3
2018-11-06T20:40:50.295Z,39.4
2018-11-06T20:42:50.576Z,39.4
2018-11-06T20:44:50.158Z,39.4
2018-11-06T20:46:49.501Z,40.2
2018-11-06T20:48:49.705Z,43.6
2018-11-06T20:50:50.356Z,43.6
2018-11-06T20:52:49.736Z,44.2
2018-11-06T20:54:49.629Z,38.8
2018-11-06T20:56:49.907Z,45.3
2018-11-06T20:58:50.043Z,44.4
2018-11-06T21:00:50.177Z,44.4
2018-11-06T21:02:50.305Z,44.3
2018-11-06T21:04:49.988Z,44.3
2018-11-06T21:06:50.353Z,45.7
2018-11-06T21:08:50.104Z,45.7
2018-11-06T21:10:50.270Z,47.7
2018-11-06T21:12:49.591Z,46.2
2018-11-06T21:14:49.831Z,44.3
2018-11-06T21:16:50.172Z,47.3
2018-11-06T21:18:50.312Z,47.3
2018-11-06T21:20:49.528Z,50.9
2018-11-06T21:22:49.697Z,50.4
2018-11-06T21:24:49.947Z,51.8
2018-11-06T21:26:50.430Z,52.2
2018-11-06T21:28:49.897Z,52.2
2018-11-06T21:30:50.054Z,52.2
2018-11-06T21:32:50.171Z,51.6
2018-11-06T21:34:49.725Z,55.7
2018-11-06T21:36:50.140Z,55.7
2018-11-06T21:38:50.310Z,56.7
2018-11-06T21:40:49.649Z,54.7
2018-11-06T21:42:49.828Z,60.2
2018-11-06T21:44:49.945Z,60.2
2018-11-06T21:46:50.377Z,52.0
2018-11-06T21:48:49.617Z,57.5
2018-11-06T21:50:49.730Z,55.1
2018-11-06T21:52:49.898Z,55.9
2018-11-06T21:54:50.219Z,55.9
2018-11-06T21:56:50.293Z,54.1
2018-11-06T21:58:49.575Z,52.1
2018-11-06T22:00:49.741Z,52.1
2018-11-06T22:02:49.854Z,54.3
2018-11-06T22:04:50.272Z,51.4
2018-11-06T22:06:49.791Z,51.4
2018-11-06T22:08:49.949Z,52.9
2018-11-06T22:10:50.089Z,57.2
2018-11-06T22:12:50.174Z,57.2
2018-11-06T22:14:49.962Z,52.5
2018-11-06T22:16:50.423Z,53.4
2018-11-06T22:18:49.564Z,53.4
2018-11-06T22:20:49.779Z,50.7
2018-11-06T22:22:49.900Z,53.3
2018-11-06T22:24:50.077Z,58.1
2018-11-06T22:26:50.430Z,58.1
2018-11-06T22:28:49.604Z,53.2
2018-11-06T22:30:49.754Z,58.6
2018-11-06T22:32:50.034Z,57.1
2018-11-06T22:34:50.063Z,57.1
2018-11-06T22:36:50.430Z,56.4
2018-11-06T22:38:49.774Z,58.8
2018-11-06T22:40:49.936Z,60.7
2018-11-06T22:42:50.074Z,60.7
2018-11-06T22:44:50.210Z,60.7
2018-11-06T22:46:49.556Z,64.5
2018-11-06T22:48:49.677Z,64.5
2018-11-06T22:50:49.828Z,68.1
2018-11-06T22:52:50.023Z,65.9
2018-11-06T22:54:50.200Z,65.9
2018-11-06T22:56:49.703Z,64.0
2018-11-06T22:58:49.854Z,68.0
2018-11-06T23:00:50.064Z,69.0
2018-11-06T23:02:50.083Z,67.3
2018-11-06T23:04:49.468Z,67.3
2018-11-06T23:06:49.989Z,66.9
2018-11-06T23:08:49.556Z,64.5
2018-11-06T23:10:49.785Z,68.1
2018-11-06T23:12:50.001Z,69.0
2018-11-06T23:14:50.338Z,65.3
2018-11-06T23:16:49.681Z,65.3
2018-11-06T23:18:49.812Z,65.7
2018-11-06T23:20:50.050Z,69.8
2018-11-06T23:22:50.205Z,72.5
2018-11-06T23:24:50.513Z,72.5
2018-11-06T23:26:49.496Z,69.2
2018-11-06T23:28:49.669Z,67.1
2018-11-06T23:30:49.866Z,68.5
2018-11-06T23:32:50.005Z,70.4
2018-11-06T23:34:49.559Z,70.4
2018-11-06T23:36:49.804Z,63.4
2018-11-06T23:38:50.006Z,69.6
2018-11-06T23:40:50.167Z,69.0
2018-11-06T23:42:50.329Z,69.0
2018-11-06T23:44:49.550Z,65.0
2018-11-06T23:46:49.952Z,65.2
2018-11-06T23:48:50.178Z,62.8
2018-11-06T23:50:49.446Z,67.6
2018-11-06T23:52:49.617Z,67.6
2018-11-06T23:54:49.779Z,67.1
2018-11-06T23:56:50.097Z,64.0
2018-11-06T23:58:50.244Z,66.2
